< < Back
Terminal Aerodrome Forecast


Current Version              Previous Versions:   1  2  3  4  5  6  7  8  9  

Terminal Aerodrome Forecast

522
FTUS42 KMLB 260855 AAA
TAFMCO
TAF AMD
KMCO 260855Z 2609/2706 00000KT P6SM SKC
     FM261400 15006KT P6SM SCT035
     FM262000 13008KT P6SM VCTS SCT040CB BKN080
     FM270000 14003KT P6SM SCT100=



Latest METAR

367
SAUS70 KWBC 261600 RRA
MTRMCO
METAR KMCO 261553Z 21006KT 10SM SCT034 32/23 A3010 RMK AO2 SLP192
T03170228


USA.gov is the U.S. government's official web portal to all federal, state and local government web resources and services.